Time;durP1;ratioP1;P1;durP2;ratioP2;P2;SDS_P1;SDS_P2;PMS_P1;PMS_P2;Temp;Humidity;BMP_temperature;BMP_pressure;BME280_temperature;BME280_humidity;BME280_pressure;Samples;Min_cycle;Max_cycle;Signal;HPM_P1;HPM_P2
2022/07/16 00:03:35;;;;;;;6.80;3.45;;;;;;;13.44;73.28;99936.34;4953403;29;20065;-87
2022/07/16 00:06:00;;;;;;;9.82;3.63;;;;;;;13.44;73.94;99946.81;4972133;28;20562;-88
2022/07/16 00:08:26;;;;;;;5.18;3.47;;;;;;;13.42;74.52;99935.56;4956991;28;20027;-88
2022/07/16 00:10:51;;;;;;;9.07;3.70;;;;;;;13.43;74.35;99939.88;4957308;28;20031;-88
2022/07/16 00:13:17;;;;;;;5.60;3.00;;;;;;;13.38;73.97;99936.66;4957045;28;20061;-88
2022/07/16 00:15:42;;;;;;;4.25;3.00;;;;;;;13.38;74.58;99930.59;4957273;28;20026;-87
2022/07/16 00:20:51;;;;;;;3.53;2.70;;;;;;;13.34;75.06;99926.44;4974781;28;20054;-88
2022/07/16 00:23:17;;;;;;;4.82;2.72;;;;;;;13.36;74.74;99930.69;4957301;28;20034;-88
2022/07/16 00:25:42;;;;;;;4.78;2.33;;;;;;;13.35;74.77;99928.13;4974152;28;20034;-87
2022/07/16 00:28:07;;;;;;;3.75;2.30;;;;;;;13.33;74.75;99925.59;4957160;28;20118;-88
2022/07/16 00:30:33;;;;;;;7.80;2.70;;;;;;;13.31;75.43;99931.84;4955964;28;20042;-88
2022/07/16 00:32:59;;;;;;;3.90;2.78;;;;;;;13.26;75.87;99924.25;4956913;28;20037;-88
2022/07/16 00:35:24;;;;;;;4.07;2.78;;;;;;;13.21;75.74;99919.22;4956689;28;20031;-87
2022/07/16 00:37:49;;;;;;;5.82;2.45;;;;;;;13.26;76.17;99920.78;4956902;28;20031;-87
2022/07/16 00:40:15;;;;;;;5.85;2.70;;;;;;;13.21;76.19;99907.91;4957011;28;20038;-88
2022/07/16 00:42:40;;;;;;;4.63;2.75;;;;;;;13.27;75.94;99914.63;4974174;28;20037;-88
2022/07/16 00:45:07;;;;;;;5.53;2.33;;;;;;;13.11;76.02;99891.03;4956950;28;20410;-87
2022/07/16 00:47:33;;;;;;;6.00;2.75;;;;;;;13.25;76.08;99912.09;4972669;28;20043;-88
2022/07/16 00:49:58;;;;;;;3.78;2.47;;;;;;;13.23;75.98;99913.94;4956749;28;20026;-87
2022/07/16 00:52:24;;;;;;;4.72;2.67;;;;;;;13.26;76.42;99921.63;4956515;28;20027;-87
2022/07/16 00:54:50;;;;;;;6.18;3.00;;;;;;;13.22;76.18;99901.75;4956169;28;20122;-87
2022/07/16 00:57:15;;;;;;;6.20;3.08;;;;;;;13.17;76.49;99901.16;4956788;28;20026;-87
2022/07/16 00:59:40;;;;;;;5.95;3.22;;;;;;;13.21;76.79;99913.16;4956440;28;20118;-87
2022/07/16 01:02:06;;;;;;;5.70;3.08;;;;;;;13.13;76.80;99894.41;4951779;29;20039;-88
2022/07/16 01:04:32;;;;;;;6.47;2.92;;;;;;;13.08;76.80;99902.50;4951715;29;20142;-86
2022/07/16 01:06:58;;;;;;;4.97;2.45;;;;;;;13.17;76.81;99912.47;4951961;29;20138;-87
2022/07/16 01:09:25;;;;;;;4.75;3.03;;;;;;;13.15;76.96;99903.03;4951752;29;20031;-88
2022/07/16 01:11:52;;;;;;;4.32;2.83;;;;;;;13.13;77.04;99904.88;4951714;29;20047;-88
2022/07/16 01:14:18;;;;;;;5.20;2.83;;;;;;;13.11;77.03;99898.88;4951747;29;20064;-87
2022/07/16 01:16:45;;;;;;;8.90;3.53;;;;;;;13.01;77.34;99888.03;4951762;29;20039;-88
2022/07/16 01:19:12;;;;;;;8.32;3.25;;;;;;;13.08;77.55;99901.66;4951708;29;20042;-87
2022/07/16 01:21:38;;;;;;;5.90;3.28;;;;;;;13.05;77.90;99891.34;4951529;29;20044;-87
2022/07/16 01:24:04;;;;;;;4.70;3.17;;;;;;;12.98;77.86;99877.78;4951689;29;20032;-87
2022/07/16 01:26:29;;;;;;;8.82;3.30;;;;;;;13.04;78.01;99889.66;4951591;29;20467;-87
2022/07/16 01:28:55;;;;;;;6.18;3.25;;;;;;;12.98;78.30;99880.38;4951646;29;20046;-87
2022/07/16 01:31:20;;;;;;;4.35;2.75;;;;;;;12.98;78.65;99880.38;4951645;29;20038;-87
2022/07/16 01:34:24;;;;;;;6.43;3.40;;;;;;;12.87;78.54;99860.03;4966801;28;20035;-87
2022/07/16 01:36:31;;;;;;;6.32;3.55;;;;;;;13.05;78.36;99883.50;4972902;28;20034;-87
2022/07/16 01:38:56;;;;;;;5.72;3.53;;;;;;;12.98;78.34;99872.53;4973422;28;20429;-87
2022/07/16 01:41:21;;;;;;;5.97;3.42;;;;;;;13.02;78.24;99878.44;4955783;28;20097;-87
2022/07/16 01:43:47;;;;;;;4.40;3.08;;;;;;;13.01;78.37;99874.13;4955694;28;20363;-87
2022/07/16 01:46:12;;;;;;;5.40;3.33;;;;;;;12.95;78.33;99870.91;4955832;28;20060;-87
2022/07/16 01:48:37;;;;;;;8.68;3.90;;;;;;;12.96;78.49;99872.59;4955454;28;20034;-87
2022/07/16 01:51:03;;;;;;;6.50;3.42;;;;;;;12.86;78.75;99863.56;4973278;28;20034;-87
2022/07/16 01:53:29;;;;;;;5.68;3.65;;;;;;;12.79;78.92;99846.50;4971608;28;20043;-87
2022/07/16 01:55:55;;;;;;;6.65;3.80;;;;;;;12.92;79.23;99863.22;4955830;28;20066;-87
2022/07/16 01:58:20;;;;;;;4.85;3.10;;;;;;;12.94;79.48;99871.84;4956100;28;20061;-87
2022/07/16 02:00:46;;;;;;;7.63;3.35;;;;;;;12.90;79.31;99872.94;4972856;28;20471;-87
2022/07/16 02:03:12;;;;;;;9.35;3.33;;;;;;;12.91;79.28;99869.41;4955539;28;20026;-88
2022/07/16 02:05:38;;;;;;;4.60;3.10;;;;;;;12.85;79.60;99861.88;4955221;28;20367;-87
2022/07/16 02:08:04;;;;;;;12.55;3.15;;;;;;;12.83;79.87;99865.50;4972807;28;20034;-87
2022/07/16 02:10:30;;;;;;;6.93;3.00;;;;;;;12.84;80.13;99870.63;4955584;28;20034;-87
2022/07/16 02:12:56;;;;;;;7.70;3.33;;;;;;;12.73;80.08;99852.91;4973180;28;20027;-87
2022/07/16 02:15:21;;;;;;;4.88;3.28;;;;;;;12.75;80.86;99858.03;4972802;28;20027;-87
2022/07/16 02:17:47;;;;;;;5.53;3.38;;;;;;;12.81;80.75;99864.72;4969711;28;20043;-88
2022/07/16 02:20:12;;;;;;;5.15;3.00;;;;;;;12.80;80.89;99861.25;4954333;28;20053;-87
2022/07/16 02:22:38;;;;;;;6.90;3.10;;;;;;;12.80;80.54;99863.03;4953849;28;20054;-87
2022/07/16 02:25:05;;;;;;;5.38;2.90;;;;;;;12.80;80.64;99856.03;4954098;28;20027;-87
2022/07/16 02:27:30;;;;;;;7.22;3.15;;;;;;;12.78;80.76;99846.59;4970210;28;20039;-87
2022/07/16 02:29:55;;;;;;;5.68;2.88;;;;;;;12.79;80.49;99848.28;4953955;28;20602;-87
2022/07/16 02:32:21;;;;;;;5.78;3.30;;;;;;;12.74;79.51;99838.91;4970297;28;20039;-87
2022/07/16 02:34:48;;;;;;;6.72;3.35;;;;;;;12.79;79.51;99837.84;4969768;28;20038;-87
2022/07/16 02:37:14;;;;;;;5.65;3.25;;;;;;;12.81;80.64;99846.41;4970136;28;20534;-87
2022/07/16 02:39:40;;;;;;;5.18;3.10;;;;;;;12.72;80.62;99825.09;4953707;28;20035;-87
2022/07/16 02:42:05;;;;;;;4.65;2.97;;;;;;;12.82;80.63;99841.13;4954039;28;20223;-87
2022/07/16 02:44:30;;;;;;;9.23;3.92;;;;;;;12.71;80.56;99825.16;4953851;28;20061;-87
2022/07/16 02:46:55;;;;;;;5.90;3.05;;;;;;;12.84;80.63;99847.09;4953735;28;20070;-87
2022/07/16 02:49:21;;;;;;;4.70;2.78;;;;;;;12.83;80.78;99850.66;4971786;28;20078;-87
2022/07/16 02:51:46;;;;;;;8.35;2.90;;;;;;;12.81;80.80;99844.69;4954983;28;20031;-87
2022/07/16 02:54:12;;;;;;;5.15;3.15;;;;;;;12.79;80.62;99841.28;4958242;28;20118;-87
2022/07/16 02:56:37;;;;;;;6.18;3.20;;;;;;;12.80;80.71;99840.34;4958643;28;20398;-88
2022/07/16 02:59:02;;;;;;;4.25;3.00;;;;;;;12.77;80.26;99829.22;4958735;28;20034;-87
2022/07/16 03:01:28;;;;;;;6.05;2.97;;;;;;;12.87;80.25;99841.72;4958704;28;20054;-87
2022/07/16 03:03:53;;;;;;;8.10;3.58;;;;;;;12.85;79.84;99833.13;4958344;28;20506;-86
2022/07/16 03:06:19;;;;;;;6.53;3.25;;;;;;;12.87;79.75;99826.03;4958549;28;20035;-87
2022/07/16 03:08:46;;;;;;;4.30;2.80;;;;;;;12.88;80.09;99829.50;4958537;28;20027;-87
2022/07/16 03:11:11;;;;;;;5.35;3.22;;;;;;;12.90;79.70;99827.66;4953950;29;20046;-87
2022/07/16 03:13:37;;;;;;;5.45;3.25;;;;;;;12.89;78.97;99831.19;4954117;29;20039;-87
2022/07/16 03:16:02;;;;;;;6.05;3.10;;;;;;;12.90;79.71;99820.66;4953946;29;20047;-87
2022/07/16 03:18:28;;;;;;;6.25;2.83;;;;;;;12.91;80.07;99822.34;4953690;29;20474;-87
2022/07/16 03:20:53;;;;;;;6.05;3.05;;;;;;;12.91;80.34;99819.72;4953501;29;20027;-87
2022/07/16 03:23:19;;;;;;;11.10;3.35;;;;;;;12.91;79.22;99819.72;4953679;29;20036;-87
2022/07/16 03:25:44;;;;;;;6.60;2.70;;;;;;;12.91;79.20;99821.50;4953520;29;20122;-87
2022/07/16 03:28:09;;;;;;;5.93;3.10;;;;;;;12.90;80.65;99819.81;4953738;29;20027;-88
2022/07/16 03:30:35;;;;;;;10.45;3.10;;;;;;;13.01;80.74;99827.91;4953622;29;20086;-88
2022/07/16 03:33:01;;;;;;;6.53;3.20;;;;;;;12.97;80.48;99816.75;4953694;29;20031;-87
2022/07/16 03:35:27;;;;;;;5.43;3.47;;;;;;;13.05;80.74;99826.81;4953645;29;20141;-88
2022/07/16 03:40:36;;;;;;;8.57;4.80;;;;;;;13.08;80.00;99823.22;4953685;29;20071;-88
2022/07/16 03:43:02;;;;;;;11.07;4.50;;;;;;;13.06;80.33;99827.66;4953556;29;20480;-87
2022/07/16 03:45:29;;;;;;;6.43;4.18;;;;;;;12.99;81.15;99808.84;4953543;29;20501;-87
2022/07/16 03:47:54;;;;;;;8.43;3.88;;;;;;;13.18;81.89;99840.91;4956672;28;20045;-87
2022/07/16 03:50:20;;;;;;;5.60;3.88;;;;;;;13.18;80.88;99835.69;4957994;28;20030;-87
2022/07/16 03:52:45;;;;;;;5.90;3.65;;;;;;;13.15;79.72;99820.19;4957527;28;20057;-88
2022/07/16 03:55:11;;;;;;;6.95;3.60;;;;;;;13.19;79.13;99831.31;4957688;28;20026;-88
2022/07/16 03:57:37;;;;;;;5.47;2.85;;;;;;;13.22;78.58;99834.63;4957519;28;20034;-88
2022/07/16 04:00:04;;;;;;;7.13;2.92;;;;;;;13.22;78.46;99836.38;4957611;28;20039;-88
2022/07/16 04:02:29;;;;;;;5.07;3.28;;;;;;;13.31;77.99;99850.75;4974609;28;20117;-87
2022/07/16 04:04:55;;;;;;;5.78;3.30;;;;;;;13.31;77.80;99848.13;4957040;28;20113;-87
2022/07/16 04:07:20;;;;;;;5.95;3.35;;;;;;;13.31;77.32;99841.13;4952794;29;20166;-87
2022/07/16 04:09:45;;;;;;;14.25;3.95;;;;;;;13.21;77.04;99826.84;4952599;29;20031;-88
2022/07/16 04:12:11;;;;;;;7.00;3.30;;;;;;;13.31;76.78;99835.03;4952843;29;20043;-87
2022/07/16 04:14:36;;;;;;;8.15;3.20;;;;;;;13.21;76.88;99825.06;4952842;29;20038;-88
2022/07/16 04:17:01;;;;;;;9.57;3.97;;;;;;;13.33;76.91;99838.44;4952244;29;20059;-88
2022/07/16 04:19:27;;;;;;;5.22;3.20;;;;;;;13.23;77.17;99812.78;4952917;29;20110;-88
2022/07/16 04:21:52;;;;;;;8.50;3.33;;;;;;;13.37;77.68;99835.56;4952667;29;20140;-88
2022/07/16 04:24:17;;;;;;;6.18;3.40;;;;;;;13.37;77.52;99819.03;4952821;29;20526;-88
2022/07/16 04:26:43;;;;;;;5.25;3.03;;;;;;;13.33;77.32;99807.88;4952665;29;20066;-88
2022/07/16 04:29:08;;;;;;;9.20;3.25;;;;;;;13.46;77.23;99823.75;4952930;29;20049;-87
2022/07/16 04:31:33;;;;;;;6.40;3.35;;;;;;;13.48;76.97;99825.38;4952621;29;20070;-88
2022/07/16 04:33:59;;;;;;;5.75;2.95;;;;;;;13.53;77.16;99832.13;4952258;29;20039;-88
2022/07/16 04:36:24;;;;;;;5.68;3.35;;;;;;;13.56;77.19;99819.69;4952544;29;20035;-88
2022/07/16 04:38:49;;;;;;;6.40;3.13;;;;;;;13.61;77.06;99827.25;4956368;28;20054;-88
2022/07/16 04:41:15;;;;;;;9.05;3.10;;;;;;;13.56;76.92;99809.22;4956987;28;20118;-87
2022/07/16 04:43:40;;;;;;;5.85;2.90;;;;;;;13.71;77.07;99826.69;4956736;28;20030;-87
2022/07/16 04:46:06;;;;;;;6.30;2.95;;;;;;;13.76;77.07;99825.56;4956801;28;20450;-87
2022/07/16 04:48:31;;;;;;;6.53;2.95;;;;;;;13.75;76.33;99806.41;4956781;28;20027;-87
2022/07/16 04:50:56;;;;;;;6.18;2.90;;;;;;;13.93;75.87;99823.66;4956742;28;20030;-88
2022/07/16 04:53:22;;;;;;;4.25;2.90;;;;;;;13.99;76.42;99819.88;4956703;28;20415;-88
2022/07/16 04:55:47;;;;;;;4.32;2.80;;;;;;;14.08;75.89;99818.50;4956330;28;20026;-88
2022/07/16 04:58:13;;;;;;;4.45;2.55;;;;;;;14.15;76.07;99817.19;4956635;28;20031;-88
2022/07/16 05:00:39;;;;;;;6.85;2.70;;;;;;;14.26;76.22;99819.19;4956492;28;20034;-87
2022/07/16 05:03:06;;;;;;;6.25;3.35;;;;;;;14.36;75.08;99821.16;4956429;28;20027;-87
2022/07/16 05:05:34;;;;;;;4.55;3.17;;;;;;;14.46;74.53;99813.59;4956564;28;20121;-88
2022/07/16 05:08:01;;;;;;;6.63;2.75;;;;;;;14.53;74.44;99803.59;4956199;28;20026;-87
2022/07/16 05:10:27;;;;;;;4.82;2.60;;;;;;;14.69;73.50;99801.75;4956340;28;20022;-88
2022/07/16 05:12:53;;;;;;;3.88;3.05;;;;;;;14.98;72.66;99815.69;4956134;28;20038;-88
2022/07/16 05:15:19;;;;;;;3.80;2.20;;;;;;;15.20;71.78;99808.16;4955619;28;20031;-87
2022/07/16 05:17:45;;;;;;;3.00;2.05;;;;;;;15.34;71.13;99809.06;4955874;28;20062;-86
2022/07/16 05:20:11;;;;;;;5.05;2.72;;;;;;;15.50;70.42;99803.66;4956393;28;20031;-87
2022/07/16 05:22:36;;;;;;;5.75;2.72;;;;;;;15.68;69.75;99813.88;4951642;29;20046;-88
2022/07/16 05:25:04;;;;;;;4.72;2.83;;;;;;;15.77;69.71;99795.81;4951425;29;20071;-86
2022/07/16 05:27:29;;;;;;;4.95;2.85;;;;;;;15.95;68.74;99805.94;4951482;29;20522;-87
2022/07/16 05:29:54;;;;;;;6.05;2.88;;;;;;;16.05;68.53;99810.59;4951271;29;20027;-87
2022/07/16 05:32:20;;;;;;;4.93;2.72;;;;;;;16.00;67.75;99805.63;4951555;29;20035;-87
2022/07/16 05:34:45;;;;;;;5.05;2.60;;;;;;;16.01;68.42;99806.47;4951250;29;20407;-87
2022/07/16 05:37:11;;;;;;;4.70;2.75;;;;;;;16.02;67.99;99810.81;4951558;29;20209;-87
2022/07/16 05:39:36;;;;;;;5.60;2.35;;;;;;;16.12;68.33;99812.72;4951657;29;20027;-87
2022/07/16 05:42:01;;;;;;;3.92;2.55;;;;;;;16.16;67.99;99802.84;4951265;29;20039;-87
2022/07/16 05:44:27;;;;;;;4.78;2.30;;;;;;;16.20;67.87;99799.91;4951376;29;20035;-87
2022/07/16 05:46:52;;;;;;;4.30;2.42;;;;;;;16.22;67.88;99789.25;4951141;29;20031;-88
2022/07/16 05:49:18;;;;;;;3.00;2.38;;;;;;;16.38;67.57;99808.31;4951368;29;20126;-88
2022/07/16 05:51:43;;;;;;;3.00;2.40;;;;;;;16.44;67.25;99801.81;4951468;29;20211;-89
2022/07/16 05:54:08;;;;;;;6.03;2.30;;;;;;;16.54;67.45;99794.13;4955342;28;20058;-87
2022/07/16 05:56:34;;;;;;;4.28;2.83;;;;;;;16.75;66.67;99791.84;4955804;28;20037;-87
2022/07/16 05:59:02;;;;;;;4.97;2.40;;;;;;;17.00;65.88;99790.94;4955574;28;20034;-89
2022/07/16 06:01:29;;;;;;;4.55;2.42;;;;;;;17.17;64.70;99796.69;4956077;28;20125;-89
2022/07/16 06:03:54;;;;;;;6.03;2.83;;;;;;;17.41;64.24;99788.81;4951252;29;20474;-89
2022/07/16 06:06:19;;;;;;;3.75;2.50;;;;;;;17.78;62.60;99757.19;4951260;29;20044;-89
2022/07/16 06:08:45;;;;;;;6.72;2.65;;;;;;;18.13;61.58;99788.78;4951224;29;20395;-89
2022/07/16 06:11:10;;;;;;;6.65;2.53;;;;;;;18.34;60.81;99783.66;4951161;29;20031;-88
2022/07/16 06:13:36;;;;;;;5.22;2.30;;;;;;;18.52;59.79;99778.75;4951401;29;20035;-89
2022/07/16 06:16:02;;;;;;;3.40;2.38;;;;;;;18.66;59.41;99777.69;4951067;29;20039;-89
2022/07/16 06:18:27;;;;;;;3.67;2.30;;;;;;;18.78;59.09;99760.09;4951040;29;20052;-89
2022/07/16 06:20:53;;;;;;;5.00;2.72;;;;;;;18.93;58.82;99774.72;4951049;29;20490;-88
2022/07/16 06:23:18;;;;;;;4.70;2.35;;;;;;;19.27;58.39;99777.28;4951234;29;20042;-88
2022/07/16 06:25:43;;;;;;;2.70;2.10;;;;;;;20.10;55.99;99773.97;4951170;29;20580;-88
2022/07/16 06:28:09;;;;;;;4.78;2.20;;;;;;;20.92;53.31;99766.88;4952514;28;20467;-87
2022/07/16 06:30:34;;;;;;;5.93;2.38;;;;;;;21.23;52.29;99758.84;4954964;29;20031;-88
2022/07/16 06:32:59;;;;;;;3.70;2.22;;;;;;;21.34;51.40;99760.59;4954721;29;20031;-87
2022/07/16 06:35:25;;;;;;;4.78;2.25;;;;;;;21.18;51.32;99767.22;4970324;28;20042;-86
2022/07/16 06:37:50;;;;;;;4.00;2.03;;;;;;;21.05;51.32;99761.34;4976980;28;20030;-87
2022/07/16 06:40:16;;;;;;;3.47;1.80;;;;;;;21.05;51.54;99758.69;4976720;28;20109;-86
2022/07/16 06:42:41;;;;;;;4.40;2.17;;;;;;;21.02;52.27;99751.00;4959133;28;20026;-87
2022/07/16 06:45:07;;;;;;;5.43;2.35;;;;;;;21.00;51.13;99752.97;4959170;28;20023;-87
2022/07/16 06:47:32;;;;;;;3.35;2.30;;;;;;;21.21;50.89;99750.22;4959361;28;20034;-87
2022/07/16 06:49:57;;;;;;;3.95;1.92;;;;;;;21.26;50.54;99741.88;4959059;28;20094;-87
2022/07/16 06:52:23;;;;;;;3.40;2.25;;;;;;;21.38;49.72;99754.03;4976615;28;20035;-87
2022/07/16 06:54:48;;;;;;;5.65;2.08;;;;;;;21.33;49.77;99753.63;4986894;28;20379;-87
2022/07/16 06:57:13;;;;;;;2.35;1.75;;;;;;;21.35;49.42;99747.19;4976904;28;20062;-87
2022/07/16 06:59:39;;;;;;;3.58;1.90;;;;;;;21.40;48.78;99752.09;4994319;28;20030;-87
2022/07/16 07:02:04;;;;;;;3.95;2.05;;;;;;;21.35;49.26;99756.97;4954884;29;20039;-88
2022/07/16 07:04:29;;;;;;;4.57;2.15;;;;;;;21.22;49.42;99738.66;4938274;29;20129;-88
2022/07/16 07:06:55;;;;;;;4.75;1.80;;;;;;;21.24;48.78;99754.41;4953898;29;20407;-87
2022/07/16 07:09:20;;;;;;;3.45;1.83;;;;;;;21.16;49.22;99749.81;4954519;29;20023;-86
2022/07/16 07:11:46;;;;;;;3.13;1.90;;;;;;;21.10;48.85;99743.22;4954190;29;20043;-87
2022/07/16 07:14:11;;;;;;;5.97;1.92;;;;;;;21.10;48.13;99747.69;4953853;29;20043;-87
2022/07/16 07:16:36;;;;;;;2.75;1.83;;;;;;;21.04;48.74;99733.19;4954053;29;20139;-87
2022/07/16 07:19:02;;;;;;;3.35;2.00;;;;;;;21.24;48.23;99736.72;4953703;29;20150;-86
2022/07/16 07:21:28;;;;;;;5.45;1.67;;;;;;;21.31;47.43;99729.03;4938044;29;20111;-87
2022/07/16 07:23:53;;;;;;;2.40;1.70;;;;;;;21.52;47.65;99753.63;4969918;28;20035;-87
2022/07/16 07:26:19;;;;;;;4.43;2.00;;;;;;;21.53;47.40;99734.13;4953964;29;20054;-88
2022/07/16 07:28:45;;;;;;;2.40;1.70;;;;;;;21.69;47.25;99736.19;4953960;29;20043;-88
2022/07/16 07:31:10;;;;;;;1.60;1.50;;;;;;;21.70;46.77;99737.03;4953829;29;20042;-86
2022/07/16 07:33:37;;;;;;;2.65;1.60;;;;;;;21.82;46.32;99746.50;4983513;28;20490;-87
2022/07/16 07:36:02;;;;;;;3.55;1.73;;;;;;;21.85;46.01;99731.16;4994894;28;20165;-88
2022/07/16 07:38:27;;;;;;;2.70;1.75;;;;;;;21.76;45.88;99726.69;4976991;28;20116;-87
2022/07/16 07:40:53;;;;;;;5.72;1.75;;;;;;;21.68;45.17;99730.06;4993468;28;20574;-87
2022/07/16 07:43:19;;;;;;;2.95;1.38;;;;;;;21.64;45.41;99728.66;4993595;28;20112;-87
2022/07/16 07:45:44;;;;;;;2.58;1.50;;;;;;;21.58;46.37;99717.81;4977470;28;20026;-87
2022/07/16 07:48:09;;;;;;;3.35;1.80;;;;;;;21.56;46.50;99728.53;5009793;28;20033;-88
2022/07/16 07:50:35;;;;;;;1.80;1.38;;;;;;;21.87;45.58;99734.50;4977298;28;20026;-88
2022/07/16 07:53:00;;;;;;;3.50;1.80;;;;;;;22.67;44.40;99714.59;5009569;28;20022;-86
2022/07/16 07:55:26;;;;;;;2.03;1.38;;;;;;;24.00;42.47;99702.44;4977105;28;20054;-88
2022/07/16 07:57:52;;;;;;;2.53;1.20;;;;;;;25.00;39.88;99706.25;4993279;28;20504;-88
2022/07/16 08:00:17;;;;;;;4.20;1.20;;;;;;;25.31;38.51;99704.66;4977313;28;20039;-88
2022/07/16 08:02:44;;;;;;;1.20;0.90;;;;;;;25.20;37.29;99702.34;4994858;28;20101;-88
2022/07/16 08:05:09;;;;;;;2.72;1.33;;;;;;;24.82;37.61;99698.38;4994481;28;20034;-86
2022/07/16 08:07:35;;;;;;;3.22;1.20;;;;;;;24.35;38.29;99704.13;4977096;28;20039;-86
2022/07/16 08:10:03;;;;;;;2.67;1.30;;;;;;;23.91;38.74;99704.22;4976687;28;20037;-87
2022/07/16 08:12:28;;;;;;;1.23;1.13;;;;;;;23.59;40.01;99707.41;4994362;28;20050;-87
2022/07/16 08:14:53;;;;;;;2.88;1.27;;;;;;;23.36;40.74;99694.59;4976755;28;20064;-87
2022/07/16 08:17:19;;;;;;;1.50;1.10;;;;;;;23.19;41.15;99695.44;5009292;28;20050;-88
2022/07/16 08:19:44;;;;;;;1.58;1.10;;;;;;;23.11;41.03;99695.34;4976877;28;20022;-87
2022/07/16 08:22:09;;;;;;;2.85;1.10;;;;;;;23.16;40.69;99703.69;4994285;28;20236;-90
2022/07/16 08:27:22;;;;;;;0.98;0.88;;;;;;;23.14;40.53;99697.72;4994439;28;20081;-90
2022/07/16 08:29:47;;;;;;;0.88;0.85;;;;;;;23.15;39.96;99692.25;4990217;28;20054;-90
2022/07/16 08:32:13;;;;;;;1.65;1.20;;;;;;;23.29;40.06;99693.53;4976686;28;20074;-90
2022/07/16 08:34:39;;;;;;;1.02;0.80;;;;;;;23.35;39.81;99692.09;4977032;28;20458;-89
2022/07/16 08:37:07;;;;;;;1.65;0.95;;;;;;;23.39;39.44;99681.00;4976433;28;20027;-90
2022/07/16 08:39:33;;;;;;;2.33;0.98;;;;;;;23.48;39.88;99687.22;4976622;28;20026;-90
2022/07/16 08:42:00;;;;;;;1.67;0.90;;;;;;;23.50;40.15;99681.75;4993353;28;20044;-90
2022/07/16 08:44:27;;;;;;;0.98;0.88;;;;;;;23.50;39.85;99689.72;4976629;28;20433;-90
2022/07/16 08:46:53;;;;;;;2.05;1.00;;;;;;;23.36;39.44;99678.66;4976685;28;20030;-90
2022/07/16 08:49:20;;;;;;;2.28;0.77;;;;;;;23.36;39.40;99688.47;4976160;28;20137;-91
2022/07/16 08:51:46;;;;;;;1.00;0.90;;;;;;;23.30;39.79;99687.25;4991879;28;20506;-90
2022/07/16 08:54:16;;;;;;;3.20;0.85;;;;;;;23.40;40.36;99674.72;4976078;28;20029;-89
2022/07/16 08:56:45;;;;;;;2.10;1.05;;;;;;;23.38;40.49;99671.34;4992643;28;20034;-89
2022/07/16 08:59:10;;;;;;;1.13;0.95;;;;;;;23.38;40.22;99666.03;4992514;28;20061;-87
2022/07/16 09:01:36;;;;;;;1.02;0.93;;;;;;;23.21;40.00;99674.84;4976061;28;20026;-88
2022/07/16 09:04:03;;;;;;;1.33;1.08;;;;;;;23.03;39.83;99685.47;4992036;28;20157;-87
2022/07/16 09:06:29;;;;;;;1.27;1.00;;;;;;;22.81;39.35;99676.09;4975885;28;20038;-88
2022/07/16 09:08:56;;;;;;;3.92;1.15;;;;;;;22.72;40.23;99679.66;4976057;28;20038;-89
2022/07/16 09:11:26;;;;;;;1.80;0.98;;;;;;;22.67;39.52;99680.09;4991844;28;20030;-89
2022/07/16 09:14:18;;;;;;;1.02;0.88;;;;;;;22.58;40.09;99674.81;4992135;28;20034;-88
2022/07/16 09:16:46;;;;;;;2.10;1.20;;;;;;;22.41;40.66;99652.53;4916935;29;20399;-88
2022/07/16 09:19:20;;;;;;;3.33;1.08;;;;;;;22.34;40.33;99673.53;4915297;29;20059;-87
2022/07/16 09:22:03;;;;;;;1.40;1.30;;;;;;;22.22;40.32;99679.19;4929598;29;20035;-89
2022/07/16 09:24:54;;;;;;;1.38;1.25;;;;;;;22.17;40.69;99669.84;4930429;29;20162;-88
2022/07/16 09:27:25;;;;;;;1.85;1.13;;;;;;;22.39;41.12;99665.13;4916230;29;20044;-88
2022/07/16 09:29:59;;;;;;;2.00;1.20;;;;;;;22.54;40.72;99670.78;4916832;29;20034;-86
2022/07/16 09:32:30;;;;;;;3.78;1.27;;;;;;;22.58;40.82;99670.34;4916775;29;20028;-89
2022/07/16 09:35:04;;;;;;;1.58;1.15;;;;;;;22.58;40.19;99662.38;4932676;29;20118;-88
2022/07/16 09:37:51;;;;;;;2.35;1.25;;;;;;;22.62;40.04;99661.09;4916866;29;20506;-89
2022/07/16 09:40:42;;;;;;;2.30;1.20;;;;;;;22.60;40.13;99665.72;4932145;29;20102;-88
2022/07/16 09:43:13;;;;;;;1.58;1.25;;;;;;;22.69;40.62;99669.31;4932133;29;20028;-89
2022/07/16 09:45:43;;;;;;;3.53;1.35;;;;;;;22.69;40.16;99650.72;4916752;29;20525;-89
2022/07/16 09:48:26;;;;;;;1.27;1.17;;;;;;;22.56;39.89;99655.56;4916247;29;20047;-89
2022/07/16 09:50:54;;;;;;;7.18;1.35;;;;;;;22.45;40.21;99663.72;4916580;29;20183;-91
2022/07/16 09:53:22;;;;;;;5.00;1.40;;;;;;;22.19;40.02;99652.94;4932743;28;20133;-89
2022/07/16 09:56:08;;;;;;;5.20;1.10;;;;;;;22.00;40.79;99667.91;4955614;28;20118;-89
2022/07/16 09:58:35;;;;;;;3.08;1.25;;;;;;;21.76;40.67;99667.56;4972212;28;20072;-89
2022/07/16 10:01:03;;;;;;;1.65;1.55;;;;;;;21.58;42.00;99662.97;4955796;28;20486;-89
2022/07/16 10:03:28;;;;;;;1.58;1.33;;;;;;;21.54;42.35;99658.94;4955891;28;20026;-89
2022/07/16 10:05:54;;;;;;;1.20;1.10;;;;;;;21.64;43.33;99656.25;4955994;28;20034;-89
2022/07/16 10:08:21;;;;;;;2.20;1.40;;;;;;;21.73;44.17;99658.06;4955955;28;20117;-90
2022/07/16 10:10:47;;;;;;;2.50;1.30;;;;;;;21.81;43.60;99668.78;4955868;28;20062;-89
2022/07/16 10:13:14;;;;;;;5.55;1.60;;;;;;;21.87;43.21;99654.13;4957263;28;20027;-88
2022/07/16 10:15:41;;;;;;;3.42;1.40;;;;;;;21.95;43.30;99656.88;4956296;28;20069;-89
2022/07/16 10:18:51;;;;;;;1.95;1.40;;;;;;;22.00;43.44;99662.59;4983113;28;20081;-89
2022/07/16 10:21:20;;;;;;;2.67;1.35;;;;;;;21.84;43.50;99649.94;4932060;29;20050;-89
2022/07/16 10:23:49;;;;;;;3.85;1.55;;;;;;;21.76;43.83;99655.13;4916471;29;20126;-89
2022/07/16 10:26:20;;;;;;;3.38;1.40;;;;;;;21.63;43.83;99663.38;4916093;29;20067;-90
2022/07/16 10:28:50;;;;;;;4.97;1.60;;;;;;;21.51;43.98;99661.03;4916786;29;20555;-90
2022/07/16 10:31:34;;;;;;;5.50;1.60;;;;;;;21.39;44.19;99663.81;4916415;29;20185;-90
2022/07/16 10:34:14;;;;;;;2.13;1.63;;;;;;;21.23;44.97;99662.66;4916379;29;20676;-90
2022/07/16 10:36:47;;;;;;;;;;;;;;;21.10;45.23;99660.28;4916890;29;20032;-90
2022/07/16 10:39:15;;;;;;;2.22;1.30;;;;;;;20.98;45.78;99672.00;4916202;29;20363;-90
2022/07/16 10:41:48;;;;;;;2.78;1.52;;;;;;;20.80;46.48;99682.41;4916421;29;20122;-90
2022/07/16 10:44:13;;;;;;;1.63;1.52;;;;;;;20.66;47.98;99679.19;4915910;29;20031;-90
2022/07/16 10:46:59;;;;;;;6.70;1.75;;;;;;;20.53;51.06;99707.69;4916559;29;20044;-89
2022/07/16 10:49:27;;;;;;;4.65;1.98;;;;;;;20.38;55.82;99709.81;4916385;29;20112;-91
2022/07/16 10:51:56;;;;;;;2.13;1.33;;;;;;;20.29;58.27;99713.25;4916821;29;20048;-91
2022/07/16 10:54:24;;;;;;;7.00;1.67;;;;;;;20.26;59.94;99716.16;4916319;29;20032;-91
2022/07/16 10:56:51;;;;;;;2.95;1.27;;;;;;;20.28;59.68;99719.53;4913603;29;20312;-90
2022/07/16 10:59:20;;;;;;;3.10;1.50;;;;;;;20.35;59.67;99722.47;4954307;28;20486;-90
2022/07/16 11:01:49;;;;;;;3.85;1.95;;;;;;;20.40;59.78;99726.41;4955265;28;20486;-91
2022/07/16 11:04:15;;;;;;;2.65;1.70;;;;;;;20.56;61.20;99715.38;4954920;28;20031;-89
2022/07/16 11:06:49;;;;;;;4.97;2.15;;;;;;;20.73;60.31;99713.03;4970582;28;20031;-90
2022/07/16 11:09:15;;;;;;;1.55;1.33;;;;;;;20.93;58.87;99714.75;4970348;28;20038;-88
2022/07/16 11:11:42;;;;;;;2.70;1.80;;;;;;;21.06;58.90;99717.16;4970423;28;20043;-89
2022/07/16 11:14:09;;;;;;;3.88;1.60;;;;;;;21.14;58.12;99717.31;4971523;28;20031;-89
2022/07/16 11:16:35;;;;;;;2.70;1.80;;;;;;;21.18;56.77;99711.59;4957875;28;20038;-89
2022/07/16 11:19:04;;;;;;;3.83;1.70;;;;;;;21.15;55.16;99701.31;4990140;28;20063;-94
2022/07/16 11:21:30;;;;;;;3.95;1.70;;;;;;;21.26;55.29;99720.69;4990091;28;20046;-89
2022/07/16 11:23:59;;;;;;;3.45;1.60;;;;;;;21.24;55.59;99714.66;4973878;28;20035;-88
2022/07/16 11:26:26;;;;;;;5.63;2.13;;;;;;;21.36;54.94;99721.53;4973319;28;20035;-88
2022/07/16 11:28:53;;;;;;;4.75;1.70;;;;;;;21.33;54.44;99717.38;4976570;28;20474;-89
2022/07/16 11:31:31;;;;;;;2.78;1.50;;;;;;;21.40;54.84;99722.94;4977716;28;20470;-88
2022/07/16 11:34:02;;;;;;;2.53;1.88;;;;;;;21.47;54.45;99731.19;4977640;28;20085;-88
2022/07/16 11:36:30;;;;;;;1.77;1.60;;;;;;;21.49;54.97;99732.72;4993683;28;20022;-88
2022/07/16 11:39:26;;;;;;;2.35;1.50;;;;;;;21.54;55.23;99711.09;4993871;28;20049;-88
2022/07/16 11:41:54;;;;;;;4.03;1.63;;;;;;;21.64;55.53;99718.06;4918874;29;20098;-88
2022/07/16 11:44:31;;;;;;;2.08;1.75;;;;;;;21.85;55.73;99722.38;4918887;29;20060;-87